sensor_id;sensor_type;location;lat;lon;timestamp;temperature;humidity
4183;DHT22;2105;52.300;9.182;2024-03-08T00:01:23;1.00;1.00
4183;DHT22;2105;52.300;9.182;2024-03-08T00:03:50;0.90;1.00
4183;DHT22;2105;52.300;9.182;2024-03-08T00:06:17;0.90;1.00
4183;DHT22;2105;52.300;9.182;2024-03-08T00:08:44;0.90;1.00
4183;DHT22;2105;52.300;9.182;2024-03-08T00:11:12;0.80;1.00
4183;DHT22;2105;52.300;9.182;2024-03-08T00:13:38;0.80;1.00
4183;DHT22;2105;52.300;9.182;2024-03-08T00:16:05;0.90;1.00
4183;DHT22;2105;52.300;9.182;2024-03-08T00:18:33;0.90;1.00
4183;DHT22;2105;52.300;9.182;2024-03-08T00:20:59;0.90;1.00
4183;DHT22;2105;52.300;9.182;2024-03-08T00:23:26;0.90;1.00
4183;DHT22;2105;52.300;9.182;2024-03-08T00:25:53;1.00;1.00
4183;DHT22;2105;52.300;9.182;2024-03-08T00:28:22;1.00;1.00
4183;DHT22;2105;52.300;9.182;2024-03-08T00:30:50;1.00;99.90
4183;DHT22;2105;52.300;9.182;2024-03-08T00:33:17;1.00;99.90
4183;DHT22;2105;52.300;9.182;2024-03-08T00:35:43;1.00;99.90
4183;DHT22;2105;52.300;9.182;2024-03-08T00:38:10;1.10;99.90
4183;DHT22;2105;52.300;9.182;2024-03-08T00:40:37;1.10;1.00
4183;DHT22;2105;52.300;9.182;2024-03-08T00:43:03;1.00;1.00
4183;DHT22;2105;52.300;9.182;2024-03-08T00:45:31;1.10;1.00
4183;DHT22;2105;52.300;9.182;2024-03-08T00:47:58;1.00;99.90
4183;DHT22;2105;52.300;9.182;2024-03-08T00:50:25;1.10;99.90
4183;DHT22;2105;52.300;9.182;2024-03-08T00:52:52;1.10;1.00
4183;DHT22;2105;52.300;9.182;2024-03-08T00:55:19;1.10;1.00
4183;DHT22;2105;52.300;9.182;2024-03-08T00:57:45;1.20;1.00
4183;DHT22;2105;52.300;9.182;2024-03-08T01:00:13;1.10;99.90
4183;DHT22;2105;52.300;9.182;2024-03-08T01:02:41;1.20;99.90
4183;DHT22;2105;52.300;9.182;2024-03-08T01:05:08;1.30;99.90
4183;DHT22;2105;52.300;9.182;2024-03-08T01:07:35;1.20;99.90
4183;DHT22;2105;52.300;9.182;2024-03-08T01:10:02;1.20;1.00
4183;DHT22;2105;52.300;9.182;2024-03-08T01:12:28;1.20;1.00
4183;DHT22;2105;52.300;9.182;2024-03-08T01:14:55;1.10;1.00
4183;DHT22;2105;52.300;9.182;2024-03-08T01:17:23;1.20;1.00
4183;DHT22;2105;52.300;9.182;2024-03-08T01:19:51;1.30;60.60
4183;DHT22;2105;52.300;9.182;2024-03-08T01:22:18;1.30;1.00
4183;DHT22;2105;52.300;9.182;2024-03-08T01:24:45;1.40;1.00
4183;DHT22;2105;52.300;9.182;2024-03-08T01:27:12;1.50;99.90
4183;DHT22;2105;52.300;9.182;2024-03-08T01:29:38;1.50;1.00
4183;DHT22;2105;52.300;9.182;2024-03-08T01:32:05;1.50;99.90
4183;DHT22;2105;52.300;9.182;2024-03-08T01:34:32;1.60;1.00
4183;DHT22;2105;52.300;9.182;2024-03-08T01:37:00;1.50;99.90
4183;DHT22;2105;52.300;9.182;2024-03-08T01:39:27;1.50;99.90
4183;DHT22;2105;52.300;9.182;2024-03-08T01:41:53;1.50;1.00
4183;DHT22;2105;52.300;9.182;2024-03-08T01:44:21;1.40;1.00
4183;DHT22;2105;52.300;9.182;2024-03-08T01:46:48;1.40;1.00
4183;DHT22;2105;52.300;9.182;2024-03-08T01:49:17;1.40;1.00
4183;DHT22;2105;52.300;9.182;2024-03-08T01:51:46;1.50;1.00
4183;DHT22;2105;52.300;9.182;2024-03-08T01:54:15;1.50;99.90
4183;DHT22;2105;52.300;9.182;2024-03-08T01:56:43;1.40;14.60
4183;DHT22;2105;52.300;9.182;2024-03-08T01:59:10;1.30;1.00
4183;DHT22;2105;52.300;9.182;2024-03-08T02:01:37;1.30;1.00
4183;DHT22;2105;52.300;9.182;2024-03-08T02:04:04;1.30;99.90
4183;DHT22;2105;52.300;9.182;2024-03-08T02:06:32;1.40;99.90
4183;DHT22;2105;52.300;9.182;2024-03-08T02:08:59;1.30;1.00
4183;DHT22;2105;52.300;9.182;2024-03-08T02:11:33;1.30;1.00
4183;DHT22;2105;52.300;9.182;2024-03-08T02:14:00;1.20;1.00
4183;DHT22;2105;52.300;9.182;2024-03-08T02:16:26;1.10;1.00
4183;DHT22;2105;52.300;9.182;2024-03-08T02:18:53;1.00;99.90
4183;DHT22;2105;52.300;9.182;2024-03-08T02:21:21;1.10;1.00
4183;DHT22;2105;52.300;9.182;2024-03-08T02:23:48;1.20;99.90
4183;DHT22;2105;52.300;9.182;2024-03-08T02:26:17;1.20;99.90
4183;DHT22;2105;52.300;9.182;2024-03-08T02:28:44;1.30;1.00
4183;DHT22;2105;52.300;9.182;2024-03-08T02:31:11;1.20;99.90
4183;DHT22;2105;52.300;9.182;2024-03-08T02:33:38;1.20;99.90
4183;DHT22;2105;52.300;9.182;2024-03-08T02:36:05;1.30;99.90
4183;DHT22;2105;52.300;9.182;2024-03-08T02:38:33;1.30;88.30
4183;DHT22;2105;52.300;9.182;2024-03-08T02:41:00;1.40;1.00
4183;DHT22;2105;52.300;9.182;2024-03-08T02:43:27;1.50;99.90
4183;DHT22;2105;52.300;9.182;2024-03-08T02:45:53;1.50;1.00
4183;DHT22;2105;52.300;9.182;2024-03-08T02:48:20;1.60;1.00
4183;DHT22;2105;52.300;9.182;2024-03-08T02:50:48;1.60;99.90
4183;DHT22;2105;52.300;9.182;2024-03-08T02:53:16;1.50;1.00
4183;DHT22;2105;52.300;9.182;2024-03-08T02:55:45;1.60;1.00
4183;DHT22;2105;52.300;9.182;2024-03-08T02:58:12;1.60;99.90
4183;DHT22;2105;52.300;9.182;2024-03-08T03:00:40;1.60;99.90
4183;DHT22;2105;52.300;9.182;2024-03-08T03:03:07;1.50;99.90
4183;DHT22;2105;52.300;9.182;2024-03-08T03:05:33;1.50;99.90
4183;DHT22;2105;52.300;9.182;2024-03-08T03:08:00;1.40;99.90
4183;DHT22;2105;52.300;9.182;2024-03-08T03:10:29;1.40;1.00
4183;DHT22;2105;52.300;9.182;2024-03-08T03:12:57;1.30;1.00
4183;DHT22;2105;52.300;9.182;2024-03-08T03:15:24;1.30;99.90
4183;DHT22;2105;52.300;9.182;2024-03-08T03:17:51;1.20;99.90
4183;DHT22;2105;52.300;9.182;2024-03-08T03:20:18;1.20;1.00
4183;DHT22;2105;52.300;9.182;2024-03-08T03:22:52;1.10;1.00
4183;DHT22;2105;52.300;9.182;2024-03-08T03:25:19;1.10;42.60
4183;DHT22;2105;52.300;9.182;2024-03-08T03:27:51;1.00;99.90
4183;DHT22;2105;52.300;9.182;2024-03-08T03:30:19;1.00;1.00
4183;DHT22;2105;52.300;9.182;2024-03-08T03:32:48;1.00;46.40
4183;DHT22;2105;52.300;9.182;2024-03-08T03:35:17;1.00;99.90
4183;DHT22;2105;52.300;9.182;2024-03-08T03:37:44;1.00;99.90
4183;DHT22;2105;52.300;9.182;2024-03-08T03:40:16;1.00;99.90
4183;DHT22;2105;52.300;9.182;2024-03-08T03:42:44;1.10;99.90
4183;DHT22;2105;52.300;9.182;2024-03-08T03:45:11;1.00;1.00
4183;DHT22;2105;52.300;9.182;2024-03-08T03:47:42;1.00;1.00
4183;DHT22;2105;52.300;9.182;2024-03-08T03:50:09;0.90;1.00
4183;DHT22;2105;52.300;9.182;2024-03-08T03:52:36;0.90;1.00
4183;DHT22;2105;52.300;9.182;2024-03-08T03:55:03;0.90;1.00
4183;DHT22;2105;52.300;9.182;2024-03-08T03:57:30;1.00;1.00
4183;DHT22;2105;52.300;9.182;2024-03-08T03:59:57;0.80;1.00
4183;DHT22;2105;52.300;9.182;2024-03-08T04:02:24;0.90;1.00
4183;DHT22;2105;52.300;9.182;2024-03-08T04:04:53;0.80;99.90
4183;DHT22;2105;52.300;9.182;2024-03-08T04:07:21;0.80;99.90
4183;DHT22;2105;52.300;9.182;2024-03-08T04:09:47;0.80;1.00
4183;DHT22;2105;52.300;9.182;2024-03-08T04:12:14;0.70;1.00
4183;DHT22;2105;52.300;9.182;2024-03-08T04:14:42;0.80;1.00
4183;DHT22;2105;52.300;9.182;2024-03-08T04:17:09;0.80;99.90
4183;DHT22;2105;52.300;9.182;2024-03-08T04:19:38;0.70;99.90
4183;DHT22;2105;52.300;9.182;2024-03-08T04:22:06;0.50;11.40
4183;DHT22;2105;52.300;9.182;2024-03-08T04:24:33;0.50;1.00
4183;DHT22;2105;52.300;9.182;2024-03-08T04:27:00;0.30;1.00
4183;DHT22;2105;52.300;9.182;2024-03-08T04:29:27;0.20;99.90
4183;DHT22;2105;52.300;9.182;2024-03-08T04:31:54;0.10;1.00
4183;DHT22;2105;52.300;9.182;2024-03-08T04:34:20;0.10;1.00
4183;DHT22;2105;52.300;9.182;2024-03-08T04:36:47;0.20;99.90
4183;DHT22;2105;52.300;9.182;2024-03-08T04:39:15;0.20;1.00
4183;DHT22;2105;52.300;9.182;2024-03-08T04:41:44;0.10;1.00
4183;DHT22;2105;52.300;9.182;2024-03-08T04:44:11;0.10;1.00
4183;DHT22;2105;52.300;9.182;2024-03-08T04:46:38;0.10;99.90
4183;DHT22;2105;52.300;9.182;2024-03-08T04:49:05;0.00;1.00
4183;DHT22;2105;52.300;9.182;2024-03-08T04:51:32;0.00;42.60
4183;DHT22;2105;52.300;9.182;2024-03-08T04:53:59;0.10;99.90
4183;DHT22;2105;52.300;9.182;2024-03-08T04:56:27;0.10;99.90
4183;DHT22;2105;52.300;9.182;2024-03-08T04:58:54;0.20;99.90
4183;DHT22;2105;52.300;9.182;2024-03-08T05:01:20;0.20;99.90
4183;DHT22;2105;52.300;9.182;2024-03-08T05:03:47;0.10;99.90
4183;DHT22;2105;52.300;9.182;2024-03-08T05:06:15;0.10;99.90
4183;DHT22;2105;52.300;9.182;2024-03-08T05:08:42;0.20;99.90
4183;DHT22;2105;52.300;9.182;2024-03-08T05:11:09;0.20;99.90
4183;DHT22;2105;52.300;9.182;2024-03-08T05:13:37;0.20;99.90
4183;DHT22;2105;52.300;9.182;2024-03-08T05:16:04;0.20;99.90
4183;DHT22;2105;52.300;9.182;2024-03-08T05:18:33;0.10;99.90
4183;DHT22;2105;52.300;9.182;2024-03-08T05:21:01;0.10;99.90
4183;DHT22;2105;52.300;9.182;2024-03-08T05:23:29;0.10;99.90
4183;DHT22;2105;52.300;9.182;2024-03-08T05:25:56;0.20;1.00
4183;DHT22;2105;52.300;9.182;2024-03-08T05:28:22;0.10;1.00
4183;DHT22;2105;52.300;9.182;2024-03-08T05:30:50;0.20;1.00
4183;DHT22;2105;52.300;9.182;2024-03-08T05:33:17;0.20;1.00
4183;DHT22;2105;52.300;9.182;2024-03-08T05:35:44;0.30;1.00
4183;DHT22;2105;52.300;9.182;2024-03-08T05:38:11;0.30;1.00
4183;DHT22;2105;52.300;9.182;2024-03-08T05:40:38;0.30;1.00
4183;DHT22;2105;52.300;9.182;2024-03-08T05:43:05;0.30;1.00
4183;DHT22;2105;52.300;9.182;2024-03-08T05:45:31;0.30;1.00
4183;DHT22;2105;52.300;9.182;2024-03-08T05:48:01;0.30;99.90
4183;DHT22;2105;52.300;9.182;2024-03-08T05:50:27;0.20;99.90
4183;DHT22;2105;52.300;9.182;2024-03-08T05:52:54;0.10;99.90
4183;DHT22;2105;52.300;9.182;2024-03-08T05:55:21;0.10;99.90
4183;DHT22;2105;52.300;9.182;2024-03-08T05:57:50;0.10;99.90
4183;DHT22;2105;52.300;9.182;2024-03-08T06:00:17;0.10;1.00
4183;DHT22;2105;52.300;9.182;2024-03-08T06:02:44;0.20;1.00
4183;DHT22;2105;52.300;9.182;2024-03-08T06:05:12;0.30;1.00
4183;DHT22;2105;52.300;9.182;2024-03-08T06:07:39;0.20;99.90
4183;DHT22;2105;52.300;9.182;2024-03-08T06:10:08;0.30;99.90
4183;DHT22;2105;52.300;9.182;2024-03-08T06:12:36;0.30;99.90
4183;DHT22;2105;52.300;9.182;2024-03-08T06:15:06;0.40;99.90
4183;DHT22;2105;52.300;9.182;2024-03-08T06:17:33;0.40;99.90
4183;DHT22;2105;52.300;9.182;2024-03-08T06:20:00;0.50;99.90
4183;DHT22;2105;52.300;9.182;2024-03-08T06:22:28;0.60;99.90
4183;DHT22;2105;52.300;9.182;2024-03-08T06:24:55;0.70;1.00
4183;DHT22;2105;52.300;9.182;2024-03-08T06:27:22;0.70;99.90
4183;DHT22;2105;52.300;9.182;2024-03-08T06:29:49;0.80;99.90
4183;DHT22;2105;52.300;9.182;2024-03-08T06:32:15;0.90;99.90
4183;DHT22;2105;52.300;9.182;2024-03-08T06:34:42;1.20;1.00
4183;DHT22;2105;52.300;9.182;2024-03-08T06:37:09;1.40;1.00
4183;DHT22;2105;52.300;9.182;2024-03-08T06:39:36;1.60;1.00
4183;DHT22;2105;52.300;9.182;2024-03-08T06:42:03;1.80;99.90
4183;DHT22;2105;52.300;9.182;2024-03-08T06:44:31;2.00;1.00
4183;DHT22;2105;52.300;9.182;2024-03-08T06:46:58;2.00;99.90
4183;DHT22;2105;52.300;9.182;2024-03-08T06:49:25;2.20;1.00
4183;DHT22;2105;52.300;9.182;2024-03-08T06:51:52;2.40;99.90
4183;DHT22;2105;52.300;9.182;2024-03-08T06:54:19;2.70;1.00
4183;DHT22;2105;52.300;9.182;2024-03-08T06:56:47;2.90;99.90
4183;DHT22;2105;52.300;9.182;2024-03-08T06:59:13;2.80;1.00
4183;DHT22;2105;52.300;9.182;2024-03-08T07:01:40;2.50;1.00
4183;DHT22;2105;52.300;9.182;2024-03-08T07:04:06;2.30;1.00
4183;DHT22;2105;52.300;9.182;2024-03-08T07:06:33;2.30;96.90
4183;DHT22;2105;52.300;9.182;2024-03-08T07:09:00;2.20;99.90
4183;DHT22;2105;52.300;9.182;2024-03-08T07:11:27;2.60;1.00
4183;DHT22;2105;52.300;9.182;2024-03-08T07:13:55;3.20;99.90
4183;DHT22;2105;52.300;9.182;2024-03-08T07:16:23;3.80;99.90
4183;DHT22;2105;52.300;9.182;2024-03-08T07:18:50;4.10;1.00
4183;DHT22;2105;52.300;9.182;2024-03-08T07:21:18;4.30;1.00
4183;DHT22;2105;52.300;9.182;2024-03-08T07:23:45;4.60;1.00
4183;DHT22;2105;52.300;9.182;2024-03-08T07:26:31;5.20;99.90
4183;DHT22;2105;52.300;9.182;2024-03-08T07:28:59;5.40;94.40
4183;DHT22;2105;52.300;9.182;2024-03-08T07:31:26;5.50;1.00
4183;DHT22;2105;52.300;9.182;2024-03-08T07:34:03;5.10;1.00
4183;DHT22;2105;52.300;9.182;2024-03-08T07:36:32;4.90;99.90
4183;DHT22;2105;52.300;9.182;2024-03-08T07:39:00;5.10;99.90
4183;DHT22;2105;52.300;9.182;2024-03-08T07:41:26;5.40;97.30
4183;DHT22;2105;52.300;9.182;2024-03-08T07:43:54;5.80;1.00
4183;DHT22;2105;52.300;9.182;2024-03-08T07:46:22;6.00;1.00
4183;DHT22;2105;52.300;9.182;2024-03-08T07:48:49;6.20;1.00
4183;DHT22;2105;52.300;9.182;2024-03-08T07:51:17;6.10;1.00
4183;DHT22;2105;52.300;9.182;2024-03-08T07:53:44;6.50;1.00
4183;DHT22;2105;52.300;9.182;2024-03-08T07:56:10;6.60;1.00
4183;DHT22;2105;52.300;9.182;2024-03-08T07:58:39;6.90;1.00
4183;DHT22;2105;52.300;9.182;2024-03-08T08:01:06;7.10;1.00
4183;DHT22;2105;52.300;9.182;2024-03-08T08:03:34;7.20;1.00
4183;DHT22;2105;52.300;9.182;2024-03-08T08:06:03;7.30;1.00
4183;DHT22;2105;52.300;9.182;2024-03-08T08:08:30;7.30;1.00
4183;DHT22;2105;52.300;9.182;2024-03-08T08:10:57;7.50;1.00
4183;DHT22;2105;52.300;9.182;2024-03-08T08:13:24;7.70;99.90
4183;DHT22;2105;52.300;9.182;2024-03-08T08:15:53;7.80;99.90
4183;DHT22;2105;52.300;9.182;2024-03-08T08:18:19;8.20;99.90
4183;DHT22;2105;52.300;9.182;2024-03-08T08:20:51;8.30;99.90
4183;DHT22;2105;52.300;9.182;2024-03-08T08:23:18;8.10;99.90
4183;DHT22;2105;52.300;9.182;2024-03-08T08:25:45;8.30;99.90
4183;DHT22;2105;52.300;9.182;2024-03-08T08:28:13;8.30;99.90
4183;DHT22;2105;52.300;9.182;2024-03-08T08:30:41;8.40;99.90
4183;DHT22;2105;52.300;9.182;2024-03-08T08:33:08;8.20;99.90
4183;DHT22;2105;52.300;9.182;2024-03-08T08:35:36;7.80;99.90
4183;DHT22;2105;52.300;9.182;2024-03-08T08:38:04;7.30;99.90
4183;DHT22;2105;52.300;9.182;2024-03-08T08:40:30;7.00;99.90
4183;DHT22;2105;52.300;9.182;2024-03-08T08:42:57;6.70;1.00
4183;DHT22;2105;52.300;9.182;2024-03-08T08:45:24;6.20;1.00
4183;DHT22;2105;52.300;9.182;2024-03-08T08:47:50;5.90;1.00
4183;DHT22;2105;52.300;9.182;2024-03-08T08:50:17;5.80;1.00
4183;DHT22;2105;52.300;9.182;2024-03-08T08:52:48;5.80;1.00
4183;DHT22;2105;52.300;9.182;2024-03-08T08:55:16;5.80;1.00
4183;DHT22;2105;52.300;9.182;2024-03-08T08:57:46;5.80;1.00
4183;DHT22;2105;52.300;9.182;2024-03-08T09:00:13;5.80;1.00
4183;DHT22;2105;52.300;9.182;2024-03-08T09:02:41;5.80;1.00
4183;DHT22;2105;52.300;9.182;2024-03-08T09:05:07;5.70;1.00
4183;DHT22;2105;52.300;9.182;2024-03-08T09:07:34;5.70;1.00
4183;DHT22;2105;52.300;9.182;2024-03-08T09:10:01;5.80;1.00
4183;DHT22;2105;52.300;9.182;2024-03-08T09:12:29;5.80;1.00
4183;DHT22;2105;52.300;9.182;2024-03-08T09:14:58;6.00;1.00
4183;DHT22;2105;52.300;9.182;2024-03-08T09:17:25;6.00;1.00
4183;DHT22;2105;52.300;9.182;2024-03-08T09:19:52;6.10;1.00
4183;DHT22;2105;52.300;9.182;2024-03-08T09:22:19;6.00;1.00
4183;DHT22;2105;52.300;9.182;2024-03-08T09:24:46;6.00;1.00
4183;DHT22;2105;52.300;9.182;2024-03-08T09:27:13;6.10;1.00
4183;DHT22;2105;52.300;9.182;2024-03-08T09:29:40;6.20;1.00
4183;DHT22;2105;52.300;9.182;2024-03-08T09:32:07;6.30;1.00
4183;DHT22;2105;52.300;9.182;2024-03-08T09:34:34;6.50;1.00
4183;DHT22;2105;52.300;9.182;2024-03-08T09:37:00;6.50;1.00
4183;DHT22;2105;52.300;9.182;2024-03-08T09:39:29;6.60;1.00
4183;DHT22;2105;52.300;9.182;2024-03-08T09:41:56;6.70;1.00
4183;DHT22;2105;52.300;9.182;2024-03-08T09:44:23;6.70;1.00
4183;DHT22;2105;52.300;9.182;2024-03-08T09:46:51;6.90;1.00
4183;DHT22;2105;52.300;9.182;2024-03-08T09:49:18;7.10;1.00
4183;DHT22;2105;52.300;9.182;2024-03-08T09:51:46;7.20;1.00
4183;DHT22;2105;52.300;9.182;2024-03-08T09:54:13;7.20;1.00
4183;DHT22;2105;52.300;9.182;2024-03-08T09:56:43;7.30;1.00
4183;DHT22;2105;52.300;9.182;2024-03-08T09:59:10;7.40;1.00
4183;DHT22;2105;52.300;9.182;2024-03-08T10:02:14;7.70;1.00
4183;DHT22;2105;52.300;9.182;2024-03-08T10:04:42;7.80;1.00
4183;DHT22;2105;52.300;9.182;2024-03-08T10:07:08;8.00;1.00
4183;DHT22;2105;52.300;9.182;2024-03-08T10:09:35;8.10;1.00
4183;DHT22;2105;52.300;9.182;2024-03-08T10:12:02;8.20;1.00
4183;DHT22;2105;52.300;9.182;2024-03-08T10:14:29;8.30;1.00
4183;DHT22;2105;52.300;9.182;2024-03-08T10:16:57;8.40;1.00
4183;DHT22;2105;52.300;9.182;2024-03-08T10:19:26;8.40;99.90
4183;DHT22;2105;52.300;9.182;2024-03-08T10:21:55;8.30;99.90
4183;DHT22;2105;52.300;9.182;2024-03-08T10:24:24;8.40;99.90
4183;DHT22;2105;52.300;9.182;2024-03-08T10:26:52;8.40;99.90
4183;DHT22;2105;52.300;9.182;2024-03-08T10:29:19;8.50;99.90
4183;DHT22;2105;52.300;9.182;2024-03-08T10:31:46;8.30;99.90
4183;DHT22;2105;52.300;9.182;2024-03-08T10:34:13;8.40;99.90
4183;DHT22;2105;52.300;9.182;2024-03-08T10:36:41;8.50;99.90
4183;DHT22;2105;52.300;9.182;2024-03-08T10:39:17;8.40;99.90
4183;DHT22;2105;52.300;9.182;2024-03-08T10:41:51;8.40;99.90
4183;DHT22;2105;52.300;9.182;2024-03-08T10:44:44;8.60;99.90
4183;DHT22;2105;52.300;9.182;2024-03-08T10:47:19;8.70;99.90
4183;DHT22;2105;52.300;9.182;2024-03-08T10:49:51;8.80;99.90
4183;DHT22;2105;52.300;9.182;2024-03-08T10:52:22;8.90;99.90
4183;DHT22;2105;52.300;9.182;2024-03-08T10:54:48;9.00;99.90
4183;DHT22;2105;52.300;9.182;2024-03-08T10:57:18;9.00;99.90
4183;DHT22;2105;52.300;9.182;2024-03-08T10:59:46;9.30;99.90
4183;DHT22;2105;52.300;9.182;2024-03-08T11:02:16;9.50;99.90
4183;DHT22;2105;52.300;9.182;2024-03-08T11:04:46;9.60;99.90
4183;DHT22;2105;52.300;9.182;2024-03-08T11:07:14;9.50;99.90
4183;DHT22;2105;52.300;9.182;2024-03-08T11:09:47;9.50;99.90
4183;DHT22;2105;52.300;9.182;2024-03-08T11:12:22;9.50;99.90
4183;DHT22;2105;52.300;9.182;2024-03-08T11:14:52;9.50;99.90
4183;DHT22;2105;52.300;9.182;2024-03-08T11:20:12;9.70;99.90
4183;DHT22;2105;52.300;9.182;2024-03-08T11:22:50;9.80;99.90
4183;DHT22;2105;52.300;9.182;2024-03-08T11:25:38;9.90;99.90
4183;DHT22;2105;52.300;9.182;2024-03-08T11:28:10;10.00;99.90
4183;DHT22;2105;52.300;9.182;2024-03-08T11:30:42;10.10;99.90
4183;DHT22;2105;52.300;9.182;2024-03-08T11:33:11;10.00;99.90
4183;DHT22;2105;52.300;9.182;2024-03-08T11:35:39;9.90;99.90
4183;DHT22;2105;52.300;9.182;2024-03-08T11:38:07;9.80;99.90
4183;DHT22;2105;52.300;9.182;2024-03-08T11:40:34;9.80;99.90
4183;DHT22;2105;52.300;9.182;2024-03-08T11:43:02;9.80;99.90
4183;DHT22;2105;52.300;9.182;2024-03-08T11:45:33;9.70;99.90
4183;DHT22;2105;52.300;9.182;2024-03-08T11:48:01;9.70;99.90
4183;DHT22;2105;52.300;9.182;2024-03-08T11:50:29;9.60;99.90
4183;DHT22;2105;52.300;9.182;2024-03-08T11:53:00;9.70;99.90
4183;DHT22;2105;52.300;9.182;2024-03-08T11:55:28;9.60;99.90
4183;DHT22;2105;52.300;9.182;2024-03-08T11:58:01;9.60;99.90
4183;DHT22;2105;52.300;9.182;2024-03-08T12:00:28;9.70;99.90
4183;DHT22;2105;52.300;9.182;2024-03-08T12:03:04;9.60;99.90
4183;DHT22;2105;52.300;9.182;2024-03-08T12:05:31;9.80;99.90
4183;DHT22;2105;52.300;9.182;2024-03-08T12:07:59;10.00;99.90
4183;DHT22;2105;52.300;9.182;2024-03-08T12:10:25;10.00;99.90
4183;DHT22;2105;52.300;9.182;2024-03-08T12:12:54;9.90;99.90
4183;DHT22;2105;52.300;9.182;2024-03-08T12:15:23;9.90;99.90
4183;DHT22;2105;52.300;9.182;2024-03-08T12:17:51;9.80;99.90
4183;DHT22;2105;52.300;9.182;2024-03-08T12:20:21;9.80;99.90
4183;DHT22;2105;52.300;9.182;2024-03-08T12:22:49;10.00;99.90
4183;DHT22;2105;52.300;9.182;2024-03-08T12:25:17;10.00;99.90
4183;DHT22;2105;52.300;9.182;2024-03-08T12:27:44;10.00;99.90
4183;DHT22;2105;52.300;9.182;2024-03-08T12:30:19;9.90;99.90
4183;DHT22;2105;52.300;9.182;2024-03-08T12:32:52;10.00;99.90
4183;DHT22;2105;52.300;9.182;2024-03-08T12:35:20;10.00;99.90
4183;DHT22;2105;52.300;9.182;2024-03-08T12:37:48;10.10;99.90
4183;DHT22;2105;52.300;9.182;2024-03-08T12:40:15;10.20;99.90
4183;DHT22;2105;52.300;9.182;2024-03-08T12:42:42;10.20;99.90
4183;DHT22;2105;52.300;9.182;2024-03-08T12:45:09;10.20;99.90
4183;DHT22;2105;52.300;9.182;2024-03-08T12:47:36;10.40;99.90
4183;DHT22;2105;52.300;9.182;2024-03-08T12:50:05;10.60;99.90
4183;DHT22;2105;52.300;9.182;2024-03-08T12:52:34;10.60;99.90
4183;DHT22;2105;52.300;9.182;2024-03-08T12:55:00;10.40;99.90
4183;DHT22;2105;52.300;9.182;2024-03-08T12:57:32;10.40;99.90
4183;DHT22;2105;52.300;9.182;2024-03-08T13:00:00;10.40;99.90
4183;DHT22;2105;52.300;9.182;2024-03-08T13:02:27;10.60;99.90
4183;DHT22;2105;52.300;9.182;2024-03-08T13:04:56;10.70;99.90
4183;DHT22;2105;52.300;9.182;2024-03-08T13:07:24;10.60;99.90
4183;DHT22;2105;52.300;9.182;2024-03-08T13:09:51;10.60;99.90
4183;DHT22;2105;52.300;9.182;2024-03-08T13:12:18;10.70;99.90
4183;DHT22;2105;52.300;9.182;2024-03-08T13:14:46;10.70;99.90
4183;DHT22;2105;52.300;9.182;2024-03-08T13:17:12;10.70;99.90
4183;DHT22;2105;52.300;9.182;2024-03-08T13:19:39;10.70;99.90
4183;DHT22;2105;52.300;9.182;2024-03-08T13:22:07;10.70;99.90
4183;DHT22;2105;52.300;9.182;2024-03-08T13:24:38;10.90;99.90
4183;DHT22;2105;52.300;9.182;2024-03-08T13:27:06;10.90;99.90
4183;DHT22;2105;52.300;9.182;2024-03-08T13:29:45;11.00;99.90
4183;DHT22;2105;52.300;9.182;2024-03-08T13:32:12;10.90;99.90
4183;DHT22;2105;52.300;9.182;2024-03-08T13:34:41;10.90;99.90
4183;DHT22;2105;52.300;9.182;2024-03-08T13:37:08;11.00;99.90
4183;DHT22;2105;52.300;9.182;2024-03-08T13:39:35;10.80;99.90
4183;DHT22;2105;52.300;9.182;2024-03-08T13:42:07;10.80;99.90
4183;DHT22;2105;52.300;9.182;2024-03-08T13:44:35;10.60;99.90
4183;DHT22;2105;52.300;9.182;2024-03-08T13:47:02;10.50;99.90
4183;DHT22;2105;52.300;9.182;2024-03-08T13:49:30;10.50;99.90
4183;DHT22;2105;52.300;9.182;2024-03-08T13:51:57;10.50;99.90
4183;DHT22;2105;52.300;9.182;2024-03-08T13:54:25;10.50;99.90
4183;DHT22;2105;52.300;9.182;2024-03-08T13:56:52;10.60;99.90
4183;DHT22;2105;52.300;9.182;2024-03-08T13:59:21;10.60;99.90
4183;DHT22;2105;52.300;9.182;2024-03-08T14:01:48;10.30;99.90
4183;DHT22;2105;52.300;9.182;2024-03-08T14:04:15;10.20;99.90
4183;DHT22;2105;52.300;9.182;2024-03-08T14:06:42;10.10;99.90
4183;DHT22;2105;52.300;9.182;2024-03-08T14:09:10;10.30;99.90
4183;DHT22;2105;52.300;9.182;2024-03-08T14:11:42;10.30;99.90
4183;DHT22;2105;52.300;9.182;2024-03-08T14:14:09;10.20;99.90
4183;DHT22;2105;52.300;9.182;2024-03-08T14:16:39;10.20;99.90
4183;DHT22;2105;52.300;9.182;2024-03-08T14:19:06;10.10;99.90
4183;DHT22;2105;52.300;9.182;2024-03-08T14:21:35;10.00;99.90
4183;DHT22;2105;52.300;9.182;2024-03-08T14:24:05;9.70;99.90
4183;DHT22;2105;52.300;9.182;2024-03-08T14:26:32;9.60;99.90
4183;DHT22;2105;52.300;9.182;2024-03-08T14:28:59;9.50;99.90
4183;DHT22;2105;52.300;9.182;2024-03-08T14:31:26;9.40;99.90
4183;DHT22;2105;52.300;9.182;2024-03-08T14:33:54;9.40;99.90
4183;DHT22;2105;52.300;9.182;2024-03-08T14:36:22;9.40;99.90
4183;DHT22;2105;52.300;9.182;2024-03-08T14:38:50;9.30;99.90
4183;DHT22;2105;52.300;9.182;2024-03-08T14:41:18;9.20;99.90
4183;DHT22;2105;52.300;9.182;2024-03-08T14:43:44;9.20;99.90
4183;DHT22;2105;52.300;9.182;2024-03-08T14:46:11;9.10;99.90
4183;DHT22;2105;52.300;9.182;2024-03-08T14:48:42;9.10;99.90
4183;DHT22;2105;52.300;9.182;2024-03-08T14:51:10;9.10;99.90
4183;DHT22;2105;52.300;9.182;2024-03-08T14:53:40;9.10;99.90
4183;DHT22;2105;52.300;9.182;2024-03-08T14:56:07;9.00;99.90
4183;DHT22;2105;52.300;9.182;2024-03-08T14:58:34;9.00;99.90
4183;DHT22;2105;52.300;9.182;2024-03-08T15:01:03;8.90;99.90
4183;DHT22;2105;52.300;9.182;2024-03-08T15:03:35;8.90;99.90
4183;DHT22;2105;52.300;9.182;2024-03-08T15:06:02;8.80;99.90
4183;DHT22;2105;52.300;9.182;2024-03-08T15:08:35;8.80;99.90
4183;DHT22;2105;52.300;9.182;2024-03-08T15:11:01;8.70;99.90
4183;DHT22;2105;52.300;9.182;2024-03-08T15:13:28;8.70;99.90
4183;DHT22;2105;52.300;9.182;2024-03-08T15:16:05;8.60;99.90
4183;DHT22;2105;52.300;9.182;2024-03-08T15:18:31;8.70;1.00
4183;DHT22;2105;52.300;9.182;2024-03-08T15:20:59;8.60;1.00
4183;DHT22;2105;52.300;9.182;2024-03-08T15:23:26;8.60;1.00
4183;DHT22;2105;52.300;9.182;2024-03-08T15:25:54;8.50;1.00
4183;DHT22;2105;52.300;9.182;2024-03-08T15:28:21;8.60;1.00
4183;DHT22;2105;52.300;9.182;2024-03-08T15:30:55;8.60;1.00
4183;DHT22;2105;52.300;9.182;2024-03-08T15:33:30;8.50;1.00
4183;DHT22;2105;52.300;9.182;2024-03-08T15:35:56;8.40;1.00
4183;DHT22;2105;52.300;9.182;2024-03-08T15:38:26;8.30;1.00
4183;DHT22;2105;52.300;9.182;2024-03-08T15:40:55;8.20;1.00
4183;DHT22;2105;52.300;9.182;2024-03-08T15:43:21;8.20;1.00
4183;DHT22;2105;52.300;9.182;2024-03-08T15:45:50;8.20;1.00
4183;DHT22;2105;52.300;9.182;2024-03-08T15:48:17;8.20;1.00
4183;DHT22;2105;52.300;9.182;2024-03-08T15:50:43;8.10;1.00
4183;DHT22;2105;52.300;9.182;2024-03-08T15:53:11;8.10;1.00
4183;DHT22;2105;52.300;9.182;2024-03-08T15:55:38;8.10;1.00
4183;DHT22;2105;52.300;9.182;2024-03-08T15:58:08;8.10;1.00
4183;DHT22;2105;52.300;9.182;2024-03-08T16:00:34;8.00;1.00
4183;DHT22;2105;52.300;9.182;2024-03-08T16:03:03;8.00;1.00
4183;DHT22;2105;52.300;9.182;2024-03-08T16:05:32;8.00;1.00
4183;DHT22;2105;52.300;9.182;2024-03-08T16:07:59;8.00;1.00
4183;DHT22;2105;52.300;9.182;2024-03-08T16:10:25;8.00;1.00
4183;DHT22;2105;52.300;9.182;2024-03-08T16:12:54;7.90;1.00
4183;DHT22;2105;52.300;9.182;2024-03-08T16:15:22;8.00;1.00
4183;DHT22;2105;52.300;9.182;2024-03-08T16:17:48;7.90;1.00
4183;DHT22;2105;52.300;9.182;2024-03-08T16:20:15;7.90;1.00
4183;DHT22;2105;52.300;9.182;2024-03-08T16:22:43;7.80;1.00
4183;DHT22;2105;52.300;9.182;2024-03-08T16:25:10;7.80;1.00
4183;DHT22;2105;52.300;9.182;2024-03-08T16:27:39;7.80;1.00
4183;DHT22;2105;52.300;9.182;2024-03-08T16:30:07;7.80;1.00